sensor_id;sensor_type;location;lat;lon;timestamp;pressure;altitude;pressure_sealevel;temperature;humidity
25759;BME280;13604;52.496;13.456;2023-09-07T00:01:09;101964.28;;;16.74;100.00
25759;BME280;13604;52.496;13.456;2023-09-07T00:03:34;101965.25;;;16.76;100.00
25759;BME280;13604;52.496;13.456;2023-09-07T00:05:59;101947.97;;;16.60;100.00
25759;BME280;13604;52.496;13.456;2023-09-07T00:08:25;101959.81;;;16.71;100.00
25759;BME280;13604;52.496;13.456;2023-09-07T00:10:50;101955.78;;;16.59;100.00
25759;BME280;13604;52.496;13.456;2023-09-07T00:13:16;101951.28;;;16.56;100.00
25759;BME280;13604;52.496;13.456;2023-09-07T00:15:42;101970.19;;;16.68;100.00
25759;BME280;13604;52.496;13.456;2023-09-07T00:18:08;101944.88;;;16.49;100.00
25759;BME280;13604;52.496;13.456;2023-09-07T00:20:33;101959.09;;;16.54;100.00
25759;BME280;13604;52.496;13.456;2023-09-07T00:22:58;101970.41;;;16.52;100.00
25759;BME280;13604;52.496;13.456;2023-09-07T00:25:25;101970.28;;;16.49;100.00
25759;BME280;13604;52.496;13.456;2023-09-07T00:27:50;101959.38;;;16.40;100.00
25759;BME280;13604;52.496;13.456;2023-09-07T00:30:16;101952.75;;;16.27;100.00
25759;BME280;13604;52.496;13.456;2023-09-07T00:32:41;101961.72;;;16.32;100.00
25759;BME280;13604;52.496;13.456;2023-09-07T00:35:06;101954.41;;;16.25;100.00
25759;BME280;13604;52.496;13.456;2023-09-07T00:37:32;101946.53;;;16.25;100.00
25759;BME280;13604;52.496;13.456;2023-09-07T00:39:58;101945.63;;;16.24;100.00
25759;BME280;13604;52.496;13.456;2023-09-07T00:42:23;101951.97;;;16.29;100.00
25759;BME280;13604;52.496;13.456;2023-09-07T00:44:48;101962.88;;;16.38;100.00
25759;BME280;13604;52.496;13.456;2023-09-07T00:47:15;101944.75;;;16.24;100.00
25759;BME280;13604;52.496;13.456;2023-09-07T00:49:40;101964.56;;;16.36;100.00
25759;BME280;13604;52.496;13.456;2023-09-07T00:52:07;101948.25;;;16.24;100.00
25759;BME280;13604;52.496;13.456;2023-09-07T00:54:33;101956.09;;;16.23;100.00
25759;BME280;13604;52.496;13.456;2023-09-07T00:56:59;101952.38;;;16.17;100.00
25759;BME280;13604;52.496;13.456;2023-09-07T00:59:25;101932.69;;;16.08;100.00
25759;BME280;13604;52.496;13.456;2023-09-07T01:01:50;101971.03;;;16.24;100.00
25759;BME280;13604;52.496;13.456;2023-09-07T01:04:15;101945.75;;;16.06;100.00
25759;BME280;13604;52.496;13.456;2023-09-07T01:06:52;101949.19;;;16.04;100.00
25759;BME280;13604;52.496;13.456;2023-09-07T01:09:21;101946.22;;;15.96;100.00
25759;BME280;13604;52.496;13.456;2023-09-07T01:11:48;101968.47;;;16.04;100.00
25759;BME280;13604;52.496;13.456;2023-09-07T01:14:14;101943.25;;;15.88;100.00
25759;BME280;13604;52.496;13.456;2023-09-07T01:16:40;101938.44;;;15.78;100.00
25759;BME280;13604;52.496;13.456;2023-09-07T01:19:06;101943.63;;;15.76;100.00
25759;BME280;13604;52.496;13.456;2023-09-07T01:21:35;101955.31;;;15.83;100.00
25759;BME280;13604;52.496;13.456;2023-09-07T01:24:06;101945.28;;;15.74;100.00
25759;BME280;13604;52.496;13.456;2023-09-07T01:26:31;101929.75;;;15.59;100.00
25759;BME280;13604;52.496;13.456;2023-09-07T01:28:57;101940.41;;;15.62;100.00
25759;BME280;13604;52.496;13.456;2023-09-07T01:31:22;101928.66;;;15.54;100.00
25759;BME280;13604;52.496;13.456;2023-09-07T01:33:47;101966.06;;;15.70;100.00
25759;BME280;13604;52.496;13.456;2023-09-07T01:36:13;101967.91;;;15.72;100.00
25759;BME280;13604;52.496;13.456;2023-09-07T01:38:38;101959.47;;;15.78;100.00
25759;BME280;13604;52.496;13.456;2023-09-07T01:41:03;101957.19;;;15.86;100.00
25759;BME280;13604;52.496;13.456;2023-09-07T01:43:28;101948.16;;;15.80;100.00
25759;BME280;13604;52.496;13.456;2023-09-07T01:45:54;101930.41;;;15.75;100.00
25759;BME280;13604;52.496;13.456;2023-09-07T01:48:19;101961.84;;;15.93;100.00
25759;BME280;13604;52.496;13.456;2023-09-07T01:50:44;101967.84;;;15.90;100.00
25759;BME280;13604;52.496;13.456;2023-09-07T01:53:10;101951.84;;;15.84;100.00
25759;BME280;13604;52.496;13.456;2023-09-07T01:55:35;101968.63;;;15.88;100.00
25759;BME280;13604;52.496;13.456;2023-09-07T01:58:00;101929.25;;;15.68;100.00
25759;BME280;13604;52.496;13.456;2023-09-07T02:00:26;101953.50;;;15.82;100.00
25759;BME280;13604;52.496;13.456;2023-09-07T02:02:51;101940.56;;;15.67;100.00
25759;BME280;13604;52.496;13.456;2023-09-07T02:05:16;101961.28;;;15.79;100.00
25759;BME280;13604;52.496;13.456;2023-09-07T02:07:42;101969.16;;;15.79;100.00
25759;BME280;13604;52.496;13.456;2023-09-07T02:10:08;101947.84;;;15.73;100.00
25759;BME280;13604;52.496;13.456;2023-09-07T02:12:34;101948.66;;;15.72;100.00
25759;BME280;13604;52.496;13.456;2023-09-07T02:15:01;101959.22;;;15.73;100.00
25759;BME280;13604;52.496;13.456;2023-09-07T02:17:27;101934.00;;;15.57;100.00
25759;BME280;13604;52.496;13.456;2023-09-07T02:19:52;101955.72;;;15.73;100.00
25759;BME280;13604;52.496;13.456;2023-09-07T02:22:18;101967.09;;;15.73;100.00
25759;BME280;13604;52.496;13.456;2023-09-07T02:24:43;101922.34;;;15.51;100.00
25759;BME280;13604;52.496;13.456;2023-09-07T02:27:08;101940.25;;;15.59;100.00
25759;BME280;13604;52.496;13.456;2023-09-07T02:29:34;101935.63;;;15.54;100.00
25759;BME280;13604;52.496;13.456;2023-09-07T02:31:59;101933.13;;;15.57;100.00
25759;BME280;13604;52.496;13.456;2023-09-07T02:34:24;101964.47;;;15.73;100.00
25759;BME280;13604;52.496;13.456;2023-09-07T02:36:50;101962.81;;;15.75;100.00
25759;BME280;13604;52.496;13.456;2023-09-07T02:39:15;101945.88;;;15.69;100.00
25759;BME280;13604;52.496;13.456;2023-09-07T02:41:40;101935.06;;;15.61;100.00
25759;BME280;13604;52.496;13.456;2023-09-07T02:44:06;101939.00;;;15.71;100.00
25759;BME280;13604;52.496;13.456;2023-09-07T02:46:31;101942.25;;;15.65;100.00
25759;BME280;13604;52.496;13.456;2023-09-07T02:48:57;101937.44;;;15.55;100.00
25759;BME280;13604;52.496;13.456;2023-09-07T02:51:23;101957.25;;;15.68;100.00
25759;BME280;13604;52.496;13.456;2023-09-07T02:53:49;101926.72;;;15.50;100.00
25759;BME280;13604;52.496;13.456;2023-09-07T02:56:14;101958.00;;;15.65;100.00
25759;BME280;13604;52.496;13.456;2023-09-07T02:58:39;101939.97;;;15.53;100.00
25759;BME280;13604;52.496;13.456;2023-09-07T03:01:08;101960.91;;;15.71;100.00
25759;BME280;13604;52.496;13.456;2023-09-07T03:03:36;101961.91;;;15.75;100.00
25759;BME280;13604;52.496;13.456;2023-09-07T03:06:12;101953.84;;;15.70;100.00
25759;BME280;13604;52.496;13.456;2023-09-07T03:08:38;101970.03;;;15.79;100.00
25759;BME280;13604;52.496;13.456;2023-09-07T03:11:04;101967.16;;;15.75;100.00
25759;BME280;13604;52.496;13.456;2023-09-07T03:13:30;101942.94;;;15.61;100.00
25759;BME280;13604;52.496;13.456;2023-09-07T03:15:55;101950.03;;;15.63;100.00
25759;BME280;13604;52.496;13.456;2023-09-07T03:18:21;101951.00;;;15.65;100.00
25759;BME280;13604;52.496;13.456;2023-09-07T03:20:46;101962.28;;;15.63;100.00
25759;BME280;13604;52.496;13.456;2023-09-07T03:23:12;101934.53;;;15.49;100.00
25759;BME280;13604;52.496;13.456;2023-09-07T03:25:37;101934.44;;;15.47;100.00
25759;BME280;13604;52.496;13.456;2023-09-07T03:28:03;101935.09;;;15.41;100.00
25759;BME280;13604;52.496;13.456;2023-09-07T03:30:28;101953.53;;;15.43;100.00
25759;BME280;13604;52.496;13.456;2023-09-07T03:32:54;101967.53;;;15.43;100.00
25759;BME280;13604;52.496;13.456;2023-09-07T03:35:19;101973.00;;;15.48;100.00
25759;BME280;13604;52.496;13.456;2023-09-07T03:37:45;101942.34;;;15.27;100.00
25759;BME280;13604;52.496;13.456;2023-09-07T03:40:10;101963.03;;;15.41;100.00
25759;BME280;13604;52.496;13.456;2023-09-07T03:42:35;101968.13;;;15.36;100.00
25759;BME280;13604;52.496;13.456;2023-09-07T03:45:01;101969.69;;;15.33;100.00
25759;BME280;13604;52.496;13.456;2023-09-07T03:47:26;101966.78;;;15.26;100.00
25759;BME280;13604;52.496;13.456;2023-09-07T03:49:55;101973.69;;;15.24;100.00
25759;BME280;13604;52.496;13.456;2023-09-07T03:52:22;101969.81;;;15.16;100.00
25759;BME280;13604;52.496;13.456;2023-09-07T03:54:50;101978.66;;;15.18;100.00
25759;BME280;13604;52.496;13.456;2023-09-07T03:57:15;101969.81;;;15.16;100.00
25759;BME280;13604;52.496;13.456;2023-09-07T03:59:41;101967.38;;;15.01;100.00
25759;BME280;13604;52.496;13.456;2023-09-07T04:02:06;101972.97;;;15.09;100.00
25759;BME280;13604;52.496;13.456;2023-09-07T04:04:31;101976.31;;;15.05;100.00
25759;BME280;13604;52.496;13.456;2023-09-07T04:06:57;101954.75;;;14.93;100.00
25759;BME280;13604;52.496;13.456;2023-09-07T04:09:22;101970.91;;;15.02;100.00
25759;BME280;13604;52.496;13.456;2023-09-07T04:11:47;101974.34;;;15.01;100.00
25759;BME280;13604;52.496;13.456;2023-09-07T04:14:13;101975.16;;;15.00;100.00
25759;BME280;13604;52.496;13.456;2023-09-07T04:16:38;101978.78;;;15.02;100.00
25759;BME280;13604;52.496;13.456;2023-09-07T04:19:04;101977.72;;;14.98;100.00
25759;BME280;13604;52.496;13.456;2023-09-07T04:21:29;101959.63;;;14.85;100.00
25759;BME280;13604;52.496;13.456;2023-09-07T04:23:54;101983.97;;;15.00;100.00
25759;BME280;13604;52.496;13.456;2023-09-07T04:26:19;101973.09;;;14.93;100.00
25759;BME280;13604;52.496;13.456;2023-09-07T04:28:45;101981.47;;;15.03;100.00
25759;BME280;13604;52.496;13.456;2023-09-07T04:31:10;101968.00;;;14.96;100.00
25759;BME280;13604;52.496;13.456;2023-09-07T04:33:36;101984.22;;;15.06;100.00
25759;BME280;13604;52.496;13.456;2023-09-07T04:36:14;101987.00;;;15.09;100.00
25759;BME280;13604;52.496;13.456;2023-09-07T04:38:40;101989.69;;;15.11;100.00
25759;BME280;13604;52.496;13.456;2023-09-07T04:41:09;101994.13;;;15.12;100.00
25759;BME280;13604;52.496;13.456;2023-09-07T04:43:36;101983.63;;;15.12;100.00
25759;BME280;13604;52.496;13.456;2023-09-07T04:46:02;101976.44;;;15.08;100.00
25759;BME280;13604;52.496;13.456;2023-09-07T04:48:28;101979.06;;;15.08;100.00
25759;BME280;13604;52.496;13.456;2023-09-07T04:51:00;101986.25;;;15.12;100.00
25759;BME280;13604;52.496;13.456;2023-09-07T04:53:28;101994.56;;;15.21;100.00
25759;BME280;13604;52.496;13.456;2023-09-07T04:55:54;101965.13;;;15.09;100.00
25759;BME280;13604;52.496;13.456;2023-09-07T04:58:19;101999.41;;;15.32;100.00
25759;BME280;13604;52.496;13.456;2023-09-07T05:00:44;101966.59;;;15.22;100.00
25759;BME280;13604;52.496;13.456;2023-09-07T05:03:10;101968.31;;;15.21;100.00
25759;BME280;13604;52.496;13.456;2023-09-07T05:05:35;101992.00;;;15.42;100.00
25759;BME280;13604;52.496;13.456;2023-09-07T05:08:00;101998.22;;;15.44;100.00
25759;BME280;13604;52.496;13.456;2023-09-07T05:10:26;101981.97;;;15.34;100.00
25759;BME280;13604;52.496;13.456;2023-09-07T05:12:52;101992.97;;;15.44;100.00
25759;BME280;13604;52.496;13.456;2023-09-07T05:15:17;101976.16;;;15.41;100.00
25759;BME280;13604;52.496;13.456;2023-09-07T05:17:42;101999.13;;;15.64;100.00
25759;BME280;13604;52.496;13.456;2023-09-07T05:20:08;101987.53;;;15.59;100.00
25759;BME280;13604;52.496;13.456;2023-09-07T05:22:34;101979.72;;;15.61;100.00
25759;BME280;13604;52.496;13.456;2023-09-07T05:25:02;102003.59;;;15.87;100.00
25759;BME280;13604;52.496;13.456;2023-09-07T05:27:28;101991.06;;;15.79;100.00
25759;BME280;13604;52.496;13.456;2023-09-07T05:29:53;101994.97;;;15.89;100.00
25759;BME280;13604;52.496;13.456;2023-09-07T05:32:18;102008.16;;;16.10;100.00
25759;BME280;13604;52.496;13.456;2023-09-07T05:34:44;102013.84;;;16.21;100.00
25759;BME280;13604;52.496;13.456;2023-09-07T05:37:09;101989.16;;;16.17;100.00
25759;BME280;13604;52.496;13.456;2023-09-07T05:39:34;101994.09;;;16.31;99.86
25759;BME280;13604;52.496;13.456;2023-09-07T05:42:00;102007.81;;;16.45;99.06
25759;BME280;13604;52.496;13.456;2023-09-07T05:44:25;102013.63;;;16.59;98.60
25759;BME280;13604;52.496;13.456;2023-09-07T05:46:50;101979.78;;;16.45;97.38
25759;BME280;13604;52.496;13.456;2023-09-07T05:49:15;101999.72;;;16.61;97.11
25759;BME280;13604;52.496;13.456;2023-09-07T05:51:41;102025.09;;;16.82;96.55
25759;BME280;13604;52.496;13.456;2023-09-07T05:54:06;102024.50;;;16.89;95.54
25759;BME280;13604;52.496;13.456;2023-09-07T05:56:32;101997.03;;;16.82;94.62
25759;BME280;13604;52.496;13.456;2023-09-07T05:58:58;102011.91;;;17.03;92.96
25759;BME280;13604;52.496;13.456;2023-09-07T06:01:24;102012.38;;;17.15;92.36
25759;BME280;13604;52.496;13.456;2023-09-07T06:03:49;102013.50;;;17.22;91.50
25759;BME280;13604;52.496;13.456;2023-09-07T06:06:14;102000.59;;;17.28;89.78
25759;BME280;13604;52.496;13.456;2023-09-07T06:08:40;101998.31;;;17.37;88.52
25759;BME280;13604;52.496;13.456;2023-09-07T06:11:05;102009.63;;;17.59;87.27
25759;BME280;13604;52.496;13.456;2023-09-07T06:13:30;102002.78;;;17.64;86.76
25759;BME280;13604;52.496;13.456;2023-09-07T06:15:56;102022.75;;;17.81;86.09
25759;BME280;13604;52.496;13.456;2023-09-07T06:18:21;102000.63;;;17.78;85.85
25759;BME280;13604;52.496;13.456;2023-09-07T06:20:46;102018.88;;;17.96;85.32
25759;BME280;13604;52.496;13.456;2023-09-07T06:23:12;102003.81;;;17.92;84.65
25759;BME280;13604;52.496;13.456;2023-09-07T06:25:37;102022.31;;;18.19;84.75
25759;BME280;13604;52.496;13.456;2023-09-07T06:28:03;102030.53;;;18.28;84.70
25759;BME280;13604;52.496;13.456;2023-09-07T06:30:28;102018.06;;;18.23;83.99
25759;BME280;13604;52.496;13.456;2023-09-07T06:32:53;102024.50;;;18.31;84.72
25759;BME280;13604;52.496;13.456;2023-09-07T06:35:19;102039.13;;;18.48;84.30
25759;BME280;13604;52.496;13.456;2023-09-07T06:37:44;102036.78;;;18.57;85.21
25759;BME280;13604;52.496;13.456;2023-09-07T06:40:10;102036.19;;;18.66;83.32
25759;BME280;13604;52.496;13.456;2023-09-07T06:42:36;102013.25;;;18.64;82.94
25759;BME280;13604;52.496;13.456;2023-09-07T06:45:01;102023.06;;;18.95;81.75
25759;BME280;13604;52.496;13.456;2023-09-07T06:47:27;102010.47;;;19.15;78.52
25759;BME280;13604;52.496;13.456;2023-09-07T06:49:53;102035.34;;;19.54;77.98
25759;BME280;13604;52.496;13.456;2023-09-07T06:52:19;102008.47;;;19.68;75.13
25759;BME280;13604;52.496;13.456;2023-09-07T06:54:44;102022.13;;;19.82;74.95
25759;BME280;13604;52.496;13.456;2023-09-07T06:57:09;102021.38;;;19.88;74.92
25759;BME280;13604;52.496;13.456;2023-09-07T06:59:35;102033.09;;;19.98;75.43
25759;BME280;13604;52.496;13.456;2023-09-07T07:02:00;102038.34;;;19.96;73.98
25759;BME280;13604;52.496;13.456;2023-09-07T07:04:26;102016.31;;;19.96;73.49
25759;BME280;13604;52.496;13.456;2023-09-07T07:06:51;102034.00;;;20.32;72.94
25759;BME280;13604;52.496;13.456;2023-09-07T07:09:16;102024.75;;;20.86;72.64
25759;BME280;13604;52.496;13.456;2023-09-07T07:11:42;102035.13;;;21.16;67.15
25759;BME280;13604;52.496;13.456;2023-09-07T07:14:08;102033.53;;;21.65;66.83
25759;BME280;13604;52.496;13.456;2023-09-07T07:16:34;102041.00;;;22.32;65.09
25759;BME280;13604;52.496;13.456;2023-09-07T07:18:59;102038.34;;;22.87;62.68
25759;BME280;13604;52.496;13.456;2023-09-07T07:21:24;102026.69;;;23.40;59.01
25759;BME280;13604;52.496;13.456;2023-09-07T07:23:50;102014.81;;;23.84;58.40
25759;BME280;13604;52.496;13.456;2023-09-07T07:36:00;102048.72;;;25.15;nan
25759;BME280;13604;52.496;13.456;2023-09-07T07:38:25;102036.09;;;24.84;nan
25759;BME280;13604;52.496;13.456;2023-09-07T07:40:50;102038.19;;;25.39;nan
25759;BME280;13604;52.496;13.456;2023-09-07T07:43:17;102047.31;;;25.98;nan
25759;BME280;13604;52.496;13.456;2023-09-07T07:45:43;102033.06;;;26.26;nan
25759;BME280;13604;52.496;13.456;2023-09-07T07:48:08;102031.28;;;26.62;nan
25759;BME280;13604;52.496;13.456;2023-09-07T07:50:37;102035.75;;;26.91;nan
25759;BME280;13604;52.496;13.456;2023-09-07T07:53:04;102043.50;;;27.67;nan
25759;BME280;13604;52.496;13.456;2023-09-07T07:55:29;102050.41;;;28.13;nan
25759;BME280;13604;52.496;13.456;2023-09-07T07:57:55;102051.19;;;28.22;nan
25759;BME280;13604;52.496;13.456;2023-09-07T08:02:35;102048.28;;;28.50;43.54
25759;BME280;13604;52.496;13.456;2023-09-07T08:05:00;102035.47;;;27.71;42.84
25759;BME280;13604;52.496;13.456;2023-09-07T08:07:25;102048.19;;;28.66;42.92
25759;BME280;13604;52.496;13.456;2023-09-07T08:09:51;102035.66;;;29.48;41.40
25759;BME280;13604;52.496;13.456;2023-09-07T08:12:17;102054.56;;;29.37;39.81
25759;BME280;13604;52.496;13.456;2023-09-07T08:14:42;102055.88;;;28.98;40.01
25759;BME280;13604;52.496;13.456;2023-09-07T08:17:08;102049.13;;;29.42;39.75
25759;BME280;13604;52.496;13.456;2023-09-07T08:19:33;102051.78;;;29.45;39.30
25759;BME280;13604;52.496;13.456;2023-09-07T08:21:59;102044.19;;;29.05;39.85
25759;BME280;13604;52.496;13.456;2023-09-07T08:24:24;102050.44;;;30.39;38.31
25759;BME280;13604;52.496;13.456;2023-09-07T08:26:49;102030.53;;;30.51;36.84
25759;BME280;13604;52.496;13.456;2023-09-07T08:29:16;102062.66;;;31.09;35.91
25759;BME280;13604;52.496;13.456;2023-09-07T08:31:42;102049.53;;;31.78;34.88
25759;BME280;13604;52.496;13.456;2023-09-07T08:34:10;102063.22;;;31.68;34.37
25759;BME280;13604;52.496;13.456;2023-09-07T08:36:36;102057.66;;;31.76;35.00
25759;BME280;13604;52.496;13.456;2023-09-07T08:39:02;102043.22;;;32.54;33.41
25759;BME280;13604;52.496;13.456;2023-09-07T08:41:31;102039.66;;;31.36;35.51
25759;BME280;13604;52.496;13.456;2023-09-07T08:43:58;102054.84;;;32.90;33.30
25759;BME280;13604;52.496;13.456;2023-09-07T08:46:24;102032.81;;;33.67;32.25
25759;BME280;13604;52.496;13.456;2023-09-07T08:48:50;102045.19;;;33.76;31.56
25759;BME280;13604;52.496;13.456;2023-09-07T08:51:17;102051.16;;;33.26;31.64
25759;BME280;13604;52.496;13.456;2023-09-07T08:53:43;102047.50;;;34.15;30.33
25759;BME280;13604;52.496;13.456;2023-09-07T08:56:12;102035.63;;;33.01;31.32
25759;BME280;13604;52.496;13.456;2023-09-07T08:58:37;102043.19;;;33.52;30.67
25759;BME280;13604;52.496;13.456;2023-09-07T09:01:03;102046.25;;;33.07;31.41
25759;BME280;13604;52.496;13.456;2023-09-07T09:03:28;102030.00;;;34.28;31.07
25759;BME280;13604;52.496;13.456;2023-09-07T09:05:56;102012.09;;;35.48;28.29
25759;BME280;13604;52.496;13.456;2023-09-07T09:08:21;102033.94;;;35.89;27.30
25759;BME280;13604;52.496;13.456;2023-09-07T09:10:58;102044.38;;;36.63;26.32
25759;BME280;13604;52.496;13.456;2023-09-07T09:13:32;102044.88;;;36.08;26.15
25759;BME280;13604;52.496;13.456;2023-09-07T09:16:00;102036.81;;;35.15;26.81
25759;BME280;13604;52.496;13.456;2023-09-07T09:18:26;102036.66;;;35.66;26.88
25759;BME280;13604;52.496;13.456;2023-09-07T09:20:52;102028.88;;;34.34;27.41
25759;BME280;13604;52.496;13.456;2023-09-07T09:23:18;102034.88;;;35.88;26.53
25759;BME280;13604;52.496;13.456;2023-09-07T09:25:43;102030.06;;;37.01;26.07
25759;BME280;13604;52.496;13.456;2023-09-07T09:28:09;102030.78;;;38.19;24.18
25759;BME280;13604;52.496;13.456;2023-09-07T09:30:35;102042.00;;;36.97;23.81
25759;BME280;13604;52.496;13.456;2023-09-07T09:33:01;102024.69;;;36.38;24.63
25759;BME280;13604;52.496;13.456;2023-09-07T09:35:26;102035.38;;;37.61;24.29
25759;BME280;13604;52.496;13.456;2023-09-07T09:37:52;102027.56;;;36.76;24.84
25759;BME280;13604;52.496;13.456;2023-09-07T09:40:17;102023.63;;;36.20;25.45
25759;BME280;13604;52.496;13.456;2023-09-07T09:42:43;102030.53;;;37.87;24.20
25759;BME280;13604;52.496;13.456;2023-09-07T09:45:10;102036.06;;;38.39;22.68
25759;BME280;13604;52.496;13.456;2023-09-07T09:47:42;102011.19;;;37.37;23.39
25759;BME280;13604;52.496;13.456;2023-09-07T09:50:11;102010.06;;;38.16;22.86
25759;BME280;13604;52.496;13.456;2023-09-07T09:52:37;102017.84;;;37.68;22.68
25759;BME280;13604;52.496;13.456;2023-09-07T09:55:07;102020.69;;;38.73;22.36
25759;BME280;13604;52.496;13.456;2023-09-07T09:57:34;102002.03;;;38.30;22.24
25759;BME280;13604;52.496;13.456;2023-09-07T10:00:00;102004.09;;;39.11;21.72
25759;BME280;13604;52.496;13.456;2023-09-07T10:02:36;102004.59;;;38.34;21.65
25759;BME280;13604;52.496;13.456;2023-09-07T10:05:03;102015.16;;;40.20;21.77
25759;BME280;13604;52.496;13.456;2023-09-07T10:07:47;102010.56;;;39.74;21.17
25759;BME280;13604;52.496;13.456;2023-09-07T10:10:13;101991.03;;;39.18;21.32
25759;BME280;13604;52.496;13.456;2023-09-07T10:12:43;102010.03;;;39.99;20.79
25759;BME280;13604;52.496;13.456;2023-09-07T10:15:25;102010.81;;;41.05;19.68
25759;BME280;13604;52.496;13.456;2023-09-07T10:18:05;102017.78;;;39.75;19.61
25759;BME280;13604;52.496;13.456;2023-09-07T10:20:51;102005.75;;;41.69;19.78
25759;BME280;13604;52.496;13.456;2023-09-07T10:23:18;102008.91;;;41.90;19.19
25759;BME280;13604;52.496;13.456;2023-09-07T10:25:56;101993.28;;;41.09;19.53
25759;BME280;13604;52.496;13.456;2023-09-07T10:28:23;102004.28;;;38.40;21.04
25759;BME280;13604;52.496;13.456;2023-09-07T10:31:15;102004.16;;;40.80;19.81
25759;BME280;13604;52.496;13.456;2023-09-07T10:33:40;102001.97;;;41.72;18.73
25759;BME280;13604;52.496;13.456;2023-09-07T10:36:06;101998.50;;;41.41;18.88
25759;BME280;13604;52.496;13.456;2023-09-07T10:38:32;101998.50;;;42.23;18.18
25759;BME280;13604;52.496;13.456;2023-09-07T10:41:00;101992.50;;;43.08;17.21
25759;BME280;13604;52.496;13.456;2023-09-07T10:43:27;102011.38;;;39.76;19.39
25759;BME280;13604;52.496;13.456;2023-09-07T10:45:56;102003.63;;;40.90;19.51
25759;BME280;13604;52.496;13.456;2023-09-07T10:48:22;101994.88;;;41.82;18.20
25759;BME280;13604;52.496;13.456;2023-09-07T10:50:48;101984.59;;;42.39;18.56
25759;BME280;13604;52.496;13.456;2023-09-07T11:00:30;102056.59;;;43.81;nan
25759;BME280;13604;52.496;13.456;2023-09-07T11:02:56;101984.47;;;43.17;nan
25759;BME280;13604;52.496;13.456;2023-09-07T11:05:21;101982.84;;;43.76;nan
25759;BME280;13604;52.496;13.456;2023-09-07T11:07:46;101984.38;;;44.74;nan
25759;BME280;13604;52.496;13.456;2023-09-07T11:10:12;101983.97;;;44.56;nan
25759;BME280;13604;52.496;13.456;2023-09-07T11:12:38;101990.72;;;46.07;nan
25759;BME280;13604;52.496;13.456;2023-09-07T11:15:04;101993.00;;;45.26;nan
25759;BME280;13604;52.496;13.456;2023-09-07T11:17:29;101989.38;;;45.69;nan
25759;BME280;13604;52.496;13.456;2023-09-07T11:19:55;101975.97;;;46.08;nan
25759;BME280;13604;52.496;13.456;2023-09-07T11:24:46;101984.19;;;49.33;nan
25759;BME280;13604;52.496;13.456;2023-09-07T11:27:11;101965.44;;;46.65;nan
25759;BME280;13604;52.496;13.456;2023-09-07T11:29:36;101971.72;;;45.28;nan
25759;BME280;13604;52.496;13.456;2023-09-07T11:32:10;101966.59;;;45.34;nan
25759;BME280;13604;52.496;13.456;2023-09-07T11:34:35;101972.72;;;44.36;nan
25759;BME280;13604;52.496;13.456;2023-09-07T11:37:11;101965.91;;;44.76;nan
25759;BME280;13604;52.496;13.456;2023-09-07T11:39:36;101960.13;;;46.00;nan
25759;BME280;13604;52.496;13.456;2023-09-07T11:42:02;101934.09;;;45.72;nan
25759;BME280;13604;52.496;13.456;2023-09-07T11:44:27;101966.91;;;44.05;nan
25759;BME280;13604;52.496;13.456;2023-09-07T11:46:52;101959.69;;;44.96;nan
25759;BME280;13604;52.496;13.456;2023-09-07T11:49:18;101949.09;;;46.42;nan
25759;BME280;13604;52.496;13.456;2023-09-07T11:51:45;101974.88;;;47.53;nan
25759;BME280;13604;52.496;13.456;2023-09-07T11:54:10;101944.59;;;45.99;nan
25759;BME280;13604;52.496;13.456;2023-09-07T11:56:36;101965.94;;;46.49;nan
25759;BME280;13604;52.496;13.456;2023-09-07T11:59:04;101959.06;;;45.48;nan
25759;BME280;13604;52.496;13.456;2023-09-07T12:02:34;101968.84;;;46.47;13.24
25759;BME280;13604;52.496;13.456;2023-09-07T12:08:21;101956.44;;;47.54;13.66
25759;BME280;13604;52.496;13.456;2023-09-07T12:10:47;101958.88;;;48.73;12.27
25759;BME280;13604;52.496;13.456;2023-09-07T12:13:12;101962.72;;;47.85;12.98
25759;BME280;13604;52.496;13.456;2023-09-07T12:15:37;101948.81;;;47.17;12.97
25759;BME280;13604;52.496;13.456;2023-09-07T12:18:03;101945.13;;;48.53;13.46
25759;BME280;13604;52.496;13.456;2023-09-07T12:20:28;101949.78;;;49.08;12.16
25759;BME280;13604;52.496;13.456;2023-09-07T12:22:54;101951.75;;;48.98;12.36
25759;BME280;13604;52.496;13.456;2023-09-07T12:25:19;101958.25;;;49.52;11.82
25759;BME280;13604;52.496;13.456;2023-09-07T12:27:44;101929.75;;;46.11;13.62
25759;BME280;13604;52.496;13.456;2023-09-07T12:30:12;101961.22;;;47.52;13.42
25759;BME280;13604;52.496;13.456;2023-09-07T12:32:39;101951.78;;;48.13;12.86
25759;BME280;13604;52.496;13.456;2023-09-07T12:35:05;101941.34;;;48.07;12.48
25759;BME280;13604;52.496;13.456;2023-09-07T12:37:34;101952.81;;;44.79;13.56
25759;BME280;13604;52.496;13.456;2023-09-07T12:39:59;101941.59;;;47.35;13.09
25759;BME280;13604;52.496;13.456;2023-09-07T12:42:25;101942.88;;;48.19;12.93
25759;BME280;13604;52.496;13.456;2023-09-07T12:44:50;101943.66;;;47.53;12.59
25759;BME280;13604;52.496;13.456;2023-09-07T12:47:15;101952.38;;;48.92;12.45
25759;BME280;13604;52.496;13.456;2023-09-07T12:49:41;101969.72;;;49.76;11.86
25759;BME280;13604;52.496;13.456;2023-09-07T12:52:07;101930.66;;;48.69;12.15
25759;BME280;13604;52.496;13.456;2023-09-07T12:54:35;101936.03;;;48.33;12.65
25759;BME280;13604;52.496;13.456;2023-09-07T12:57:01;101943.09;;;49.11;12.45
25759;BME280;13604;52.496;13.456;2023-09-07T12:59:28;101935.00;;;49.45;12.49